Time;durP1;ratioP1;P1;durP2;ratioP2;P2;SDS_P1;SDS_P2;PMS_P1;PMS_P2;Temp;Humidity;BMP_temperature;BMP_pressure;BME280_temperature;BME280_humidity;BME280_pressure;Samples;Min_cycle;Max_cycle;Signal;HPM_P1;HPM_P2
2021/11/06 00:00:33;;;;;;;7.43;3.10;;;;;;;7.68;94.14;102881.88;4869679;29;20041;-83
2021/11/06 00:02:59;;;;;;;10.48;3.50;;;;;;;7.65;93.80;102880.13;4832681;29;20212;-83
2021/11/06 00:05:24;;;;;;;10.90;3.55;;;;;;;7.65;93.27;102882.72;4870035;29;20483;-83
2021/11/06 00:07:50;;;;;;;10.65;3.38;;;;;;;7.65;92.96;102874.91;4857281;29;20040;-84
2021/11/06 00:10:15;;;;;;;6.65;3.20;;;;;;;7.69;93.29;102883.63;4832381;29;20064;-85
2021/11/06 00:12:41;;;;;;;7.93;3.38;;;;;;;7.69;93.79;102887.13;4850218;29;20048;-86
2021/11/06 00:15:06;;;;;;;4.15;2.70;;;;;;;7.69;93.74;102881.91;4859293;29;20328;-85
2021/11/06 00:17:32;;;;;;;13.18;4.30;;;;;;;7.69;93.83;102879.28;4833510;29;20049;-86
2021/11/06 00:19:58;;;;;;;7.18;3.50;;;;;;;7.67;93.84;102878.38;4848786;29;20064;-85
2021/11/06 00:22:23;;;;;;;6.63;3.92;;;;;;;7.66;93.89;102876.66;4850735;29;20109;-86
2021/11/06 00:24:49;;;;;;;6.20;3.60;;;;;;;7.65;93.60;102879.25;4838687;29;20097;-86
2021/11/06 00:27:14;;;;;;;7.90;4.35;;;;;;;7.64;93.43;102885.31;4854175;29;20037;-85
2021/11/06 00:29:39;;;;;;;8.73;4.20;;;;;;;7.61;93.20;102886.19;4865246;29;20235;-83
2021/11/06 00:32:05;;;;;;;9.52;4.30;;;;;;;7.62;93.28;102892.28;4857263;29;20043;-84
2021/11/06 00:34:31;;;;;;;14.32;3.80;;;;;;;7.61;93.24;102885.34;4847792;29;20070;-84
2021/11/06 00:36:56;;;;;;;5.25;3.75;;;;;;;7.61;93.32;102885.34;4849379;29;20045;-85
2021/11/06 00:39:22;;;;;;;7.93;4.82;;;;;;;7.60;93.72;102881.81;4852121;29;20037;-84
2021/11/06 00:41:47;;;;;;;5.80;3.90;;;;;;;7.60;93.75;102883.56;4832072;29;20045;-85
2021/11/06 00:44:12;;;;;;;9.85;4.53;;;;;;;7.60;93.71;102886.19;4845427;29;20082;-86
2021/11/06 00:46:38;;;;;;;6.80;4.45;;;;;;;7.58;93.54;102883.56;4846801;29;20037;-84
2021/11/06 00:49:03;;;;;;;12.75;4.97;;;;;;;7.60;94.13;102883.56;4833875;29;20042;-85
2021/11/06 00:51:29;;;;;;;7.65;4.75;;;;;;;7.59;93.71;102884.47;4875137;29;20276;-85
2021/11/06 00:53:54;;;;;;;7.80;4.43;;;;;;;7.59;93.69;102884.47;4841963;29;20048;-85
2021/11/06 00:56:20;;;;;;;10.63;4.93;;;;;;;7.59;93.88;102884.47;4847660;29;20282;-85
2021/11/06 00:58:45;;;;;;;7.30;5.07;;;;;;;7.59;94.12;102880.09;4845277;29;20045;-86
2021/11/06 01:01:11;;;;;;;10.65;4.90;;;;;;;7.59;94.08;102881.84;4860968;29;20032;-84
2021/11/06 01:03:36;;;;;;;9.15;5.00;;;;;;;7.59;94.00;102882.72;4855252;29;20041;-84
2021/11/06 01:06:01;;;;;;;9.35;5.40;;;;;;;7.59;94.31;102877.50;4868079;29;20041;-84
2021/11/06 01:08:27;;;;;;;12.32;5.35;;;;;;;7.59;94.21;102871.41;4831715;29;20038;-83
2021/11/06 01:10:52;;;;;;;6.68;5.32;;;;;;;7.58;94.20;102874.88;4846429;29;20080;-83
2021/11/06 01:13:19;;;;;;;8.32;4.93;;;;;;;7.57;93.86;102865.34;4850435;29;20320;-84
2021/11/06 01:15:44;;;;;;;14.40;5.63;;;;;;;7.60;93.99;102868.78;4857549;29;20048;-83
2021/11/06 01:18:10;;;;;;;13.90;6.50;;;;;;;7.60;94.03;102860.09;4846996;29;20257;-84
2021/11/06 01:20:35;;;;;;;13.68;5.63;;;;;;;7.59;94.16;102853.16;4831490;29;20052;-84
2021/11/06 01:23:01;;;;;;;8.57;5.25;;;;;;;7.58;94.01;102857.50;4857288;29;20049;-84
2021/11/06 01:25:26;;;;;;;9.73;5.72;;;;;;;7.59;94.23;102866.19;4830420;29;20098;-83
2021/11/06 01:27:52;;;;;;;16.52;5.75;;;;;;;7.60;93.89;102860.09;4846311;29;20040;-82
2021/11/06 01:30:18;;;;;;;16.55;6.20;;;;;;;7.61;94.41;102857.50;4846035;29;20042;-84
2021/11/06 01:32:49;;;;;;;6.97;5.60;;;;;;;7.58;94.04;102852.28;4845516;29;20029;-83
2021/11/06 01:35:15;;;;;;;16.88;6.70;;;;;;;7.60;94.16;102860.09;4844200;29;20037;-83
2021/11/06 01:37:40;;;;;;;8.00;5.38;;;;;;;7.59;94.30;102854.03;4845361;29;20048;-83
2021/11/06 01:40:08;;;;;;;10.93;6.30;;;;;;;7.59;94.31;102858.38;4862892;29;20049;-82
2021/11/06 01:42:33;;;;;;;13.23;5.82;;;;;;;7.60;94.16;102865.31;4838314;29;20041;-83
2021/11/06 01:44:59;;;;;;;8.93;6.70;;;;;;;7.60;94.08;102867.94;4829133;29;20285;-83
2021/11/06 01:47:24;;;;;;;15.00;6.78;;;;;;;7.59;94.15;102859.25;4863079;29;20038;-82
2021/11/06 01:49:50;;;;;;;11.25;6.57;;;;;;;7.59;94.31;102858.38;4852764;29;20113;-84
2021/11/06 01:52:15;;;;;;;16.80;6.78;;;;;;;7.58;94.38;102856.63;4829250;29;20360;-83
2021/11/06 01:54:41;;;;;;;11.65;6.68;;;;;;;7.56;94.23;102853.16;4834511;29;20041;-82
2021/11/06 01:57:06;;;;;;;15.30;6.32;;;;;;;7.57;94.26;102854.91;4861682;29;20040;-82
2021/11/06 01:59:31;;;;;;;11.35;7.15;;;;;;;7.57;94.22;102865.34;4846179;29;20224;-82
2021/11/06 02:01:58;;;;;;;11.45;6.55;;;;;;;7.58;94.29;102859.22;4846344;29;20231;-82
2021/11/06 02:04:23;;;;;;;16.17;7.35;;;;;;;7.56;94.41;102872.25;4830389;29;20354;-82
2021/11/06 02:06:48;;;;;;;8.90;7.00;;;;;;;7.55;94.39;102857.50;4862414;29;20045;-82
2021/11/06 02:09:14;;;;;;;11.35;6.75;;;;;;;7.55;94.58;102854.88;4847093;29;20045;-82
2021/11/06 02:11:40;;;;;;;10.68;6.82;;;;;;;7.57;94.50;102852.28;4849009;29;20128;-81
2021/11/06 02:14:05;;;;;;;10.32;7.20;;;;;;;7.57;94.36;102853.16;4837055;29;20096;-82
2021/11/06 02:16:31;;;;;;;13.60;6.90;;;;;;;7.58;94.47;102851.41;4846300;29;20363;-82
2021/11/06 02:18:56;;;;;;;11.90;7.55;;;;;;;7.57;94.72;102850.56;4863697;29;20072;-81
2021/11/06 02:21:22;;;;;;;12.98;7.88;;;;;;;7.56;94.86;102835.75;4872741;29;20113;-82
2021/11/06 02:23:49;;;;;;;13.35;8.05;;;;;;;7.57;94.81;102839.25;4853615;29;20033;-81
2021/11/06 02:26:14;;;;;;;12.43;8.63;;;;;;;7.59;94.93;102846.22;4847813;29;20053;-83
2021/11/06 02:28:42;;;;;;;9.35;7.72;;;;;;;7.60;95.03;102840.09;4865671;29;20258;-83
2021/11/06 02:31:08;;;;;;;17.67;8.73;;;;;;;7.58;95.09;102844.44;4858608;29;20045;-82
2021/11/06 02:33:33;;;;;;;19.10;8.40;;;;;;;7.59;95.05;102838.38;4866925;29;20041;-83
2021/11/06 02:36:00;;;;;;;10.98;8.07;;;;;;;7.60;94.99;102840.09;4868001;29;20038;-82
2021/11/06 02:38:25;;;;;;;11.90;8.23;;;;;;;7.62;94.93;102842.72;4864832;29;20086;-82
2021/11/06 02:40:51;;;;;;;15.07;8.50;;;;;;;7.62;95.10;102840.13;4871326;29;20053;-82
2021/11/06 02:43:16;;;;;;;12.52;8.20;;;;;;;7.63;95.12;102847.94;4864951;29;20253;-82
2021/11/06 02:45:42;;;;;;;13.00;8.52;;;;;;;7.64;95.20;102857.53;4857062;29;20045;-83
2021/11/06 02:48:07;;;;;;;15.65;9.20;;;;;;;7.67;95.15;102846.22;4848552;29;20297;-82
2021/11/06 02:50:33;;;;;;;15.77;8.38;;;;;;;7.67;95.41;102852.31;4848340;29;20232;-83
2021/11/06 02:52:58;;;;;;;15.60;9.38;;;;;;;7.68;95.59;102846.22;4849083;29;20245;-83
2021/11/06 02:55:24;;;;;;;17.23;9.68;;;;;;;7.69;95.52;102841.88;4850936;29;20064;-82
2021/11/06 02:57:49;;;;;;;18.20;9.73;;;;;;;7.71;95.49;102836.69;4835242;29;20226;-82
2021/11/06 03:00:15;;;;;;;13.18;9.02;;;;;;;7.70;95.41;102835.81;4851176;29;20041;-82
2021/11/06 03:02:41;;;;;;;14.55;9.88;;;;;;;7.70;95.34;102830.59;4855433;29;20037;-82
2021/11/06 03:05:08;;;;;;;16.10;9.65;;;;;;;7.69;95.10;102837.56;4830571;29;20039;-83
2021/11/06 03:07:34;;;;;;;19.83;9.63;;;;;;;7.72;95.13;102831.47;4850763;29;20320;-82
2021/11/06 03:09:59;;;;;;;21.80;9.65;;;;;;;7.71;95.19;102837.53;4850008;29;20041;-87
2021/11/06 03:12:24;;;;;;;18.52;11.10;;;;;;;7.72;95.23;102833.22;4851676;29;20059;-84
2021/11/06 03:14:50;;;;;;;26.45;11.10;;;;;;;7.72;95.23;102835.81;4836991;29;20255;-86
2021/11/06 03:17:15;;;;;;;21.55;10.32;;;;;;;7.73;95.17;102834.94;4843723;29;20029;-85
2021/11/06 03:19:41;;;;;;;25.73;10.98;;;;;;;7.73;95.33;102843.66;4856119;29;20034;-86
2021/11/06 03:22:06;;;;;;;15.20;10.77;;;;;;;7.74;95.62;102841.91;4847390;29;20048;-86
2021/11/06 03:24:32;;;;;;;23.08;12.15;;;;;;;7.74;95.64;102845.38;4823313;29;20053;-86
2021/11/06 03:26:58;;;;;;;17.25;11.23;;;;;;;7.75;95.83;102838.41;4832750;29;20120;-86
2021/11/06 03:29:23;;;;;;;23.60;12.43;;;;;;;7.75;96.04;102834.09;4836681;29;20037;-86
2021/11/06 03:31:49;;;;;;;18.55;11.38;;;;;;;7.75;96.05;102833.19;4851884;29;20094;-86
2021/11/06 03:34:15;;;;;;;16.92;11.50;;;;;;;7.76;96.34;102835.81;4852222;29;20426;-86
2021/11/06 03:36:40;;;;;;;14.60;10.88;;;;;;;7.77;96.31;102829.75;4852702;29;20065;-86
2021/11/06 03:39:06;;;;;;;14.88;11.43;;;;;;;7.78;96.29;102828.88;4836897;29;20098;-86
2021/11/06 03:41:31;;;;;;;25.20;12.38;;;;;;;7.79;96.31;102832.38;4852995;29;20033;-86
2021/11/06 03:43:57;;;;;;;21.27;11.77;;;;;;;7.79;96.29;102832.38;4836807;29;20073;-87
2021/11/06 03:46:22;;;;;;;19.45;12.13;;;;;;;7.79;96.48;102830.63;4852255;29;20096;-86
2021/11/06 03:48:48;;;;;;;19.23;11.90;;;;;;;7.82;96.26;102827.13;4852480;29;20033;-86
2021/11/06 03:51:13;;;;;;;21.42;11.63;;;;;;;7.82;96.40;102830.63;4852086;29;20053;-87
2021/11/06 03:53:39;;;;;;;18.25;12.25;;;;;;;7.83;96.56;102832.38;4868499;29;20044;-86
2021/11/06 03:56:04;;;;;;;21.63;12.82;;;;;;;7.83;96.49;102821.94;4852522;29;20041;-86
2021/11/06 03:58:30;;;;;;;17.88;11.13;;;;;;;7.83;96.71;102832.38;4835951;29;20068;-86
2021/11/06 04:00:55;;;;;;;18.92;12.38;;;;;;;7.85;96.45;102819.31;4836864;29;20553;-86
2021/11/06 04:03:21;;;;;;;22.83;12.73;;;;;;;7.85;96.42;102811.50;4867580;29;20049;-86
2021/11/06 04:05:46;;;;;;;19.77;12.52;;;;;;;7.84;96.24;102817.56;4851552;29;20034;-85
2021/11/06 04:08:12;;;;;;;25.90;13.52;;;;;;;7.85;96.75;102822.81;4867673;29;20041;-87
2021/11/06 04:10:37;;;;;;;27.13;13.20;;;;;;;7.87;96.41;102814.97;4820527;29;20057;-86
2021/11/06 04:13:03;;;;;;;20.77;12.90;;;;;;;7.87;96.40;102817.59;4850030;29;20351;-86
2021/11/06 04:15:28;;;;;;;21.63;13.38;;;;;;;7.87;96.42;102817.59;4846621;29;20337;-86
2021/11/06 04:17:53;;;;;;;17.63;13.35;;;;;;;7.87;96.41;102813.22;4832382;29;20046;-86
2021/11/06 04:20:19;;;;;;;25.77;13.45;;;;;;;7.88;96.63;102812.38;4837342;29;20025;-86
2021/11/06 04:22:44;;;;;;;23.80;13.50;;;;;;;7.90;96.58;102822.81;4851410;29;20049;-86
2021/11/06 04:25:10;;;;;;;24.27;13.43;;;;;;;7.91;96.32;102816.72;4850737;29;20044;-86
2021/11/06 04:27:35;;;;;;;22.35;13.15;;;;;;;7.92;96.54;102823.69;4866625;29;20329;-86
2021/11/06 04:30:03;;;;;;;24.08;14.20;;;;;;;7.94;96.41;102826.31;4835762;29;20037;-86
2021/11/06 04:32:28;;;;;;;30.70;14.45;;;;;;;7.96;96.71;102827.19;4836133;29;20083;-86
2021/11/06 04:34:53;;;;;;;22.65;14.98;;;;;;;7.95;96.55;102836.75;4851364;29;20041;-86
2021/11/06 04:37:19;;;;;;;27.65;15.13;;;;;;;7.98;96.61;102828.06;4867069;29;20048;-86
2021/11/06 04:39:44;;;;;;;25.52;14.85;;;;;;;7.98;96.76;102841.97;4850978;29;20045;-86
2021/11/06 04:42:10;;;;;;;25.55;15.30;;;;;;;7.99;96.71;102835.88;4835319;29;20262;-86
2021/11/06 04:44:36;;;;;;;23.02;15.02;;;;;;;8.00;96.97;102836.75;4850755;29;20033;-87
2021/11/06 04:47:01;;;;;;;28.77;16.20;;;;;;;8.00;96.81;102831.53;4867401;29;20060;-86
2021/11/06 04:49:27;;;;;;;30.58;15.93;;;;;;;7.98;96.61;102828.91;4836413;29;20484;-87
2021/11/06 04:51:52;;;;;;;24.23;15.82;;;;;;;7.98;96.63;102826.31;4867130;29;20266;-87
2021/11/06 04:54:18;;;;;;;26.55;16.33;;;;;;;7.98;96.58;102821.09;4851114;29;20056;-86
2021/11/06 04:56:43;;;;;;;24.42;16.20;;;;;;;7.99;96.59;102822.84;4836713;29;20042;-86
2021/11/06 04:59:09;;;;;;;29.27;15.93;;;;;;;7.98;96.47;102823.69;4850538;29;20042;-86
2021/11/06 05:01:35;;;;;;;29.67;15.77;;;;;;;8.01;96.44;102826.31;4835408;29;20044;-86
2021/11/06 05:04:00;;;;;;;27.38;16.90;;;;;;;8.00;96.55;102810.66;4836423;29;20045;-86
2021/11/06 05:06:27;;;;;;;29.10;15.52;;;;;;;7.98;96.44;102821.09;4851059;29;20214;-86
2021/11/06 05:08:53;;;;;;;25.60;15.60;;;;;;;8.00;96.51;102813.25;4837249;29;20384;-85
2021/11/06 05:11:18;;;;;;;23.92;15.55;;;;;;;8.00;96.30;102810.66;4866481;29;20288;-86
2021/11/06 05:13:44;;;;;;;26.95;16.65;;;;;;;8.00;96.51;102805.44;4867179;29;20045;-86
2021/11/06 05:16:09;;;;;;;32.22;16.92;;;;;;;8.00;96.47;102810.66;4850513;29;20112;-86
2021/11/06 05:18:34;;;;;;;27.80;16.60;;;;;;;8.00;96.21;102816.75;4850262;29;20435;-86
2021/11/06 05:21:00;;;;;;;25.23;16.25;;;;;;;8.00;96.26;102813.25;4835199;29;20039;-86
2021/11/06 05:23:25;;;;;;;25.33;15.40;;;;;;;7.98;96.29;102810.66;4849999;29;20041;-86
2021/11/06 05:25:51;;;;;;;27.75;16.65;;;;;;;7.98;96.14;102807.19;4850208;29;20325;-87
2021/11/06 05:28:16;;;;;;;26.10;15.98;;;;;;;7.97;96.23;102813.28;4849829;29;20037;-86
2021/11/06 05:30:42;;;;;;;27.85;15.73;;;;;;;7.98;95.92;102820.22;4865225;29;20041;-86
2021/11/06 05:33:07;;;;;;;25.83;15.52;;;;;;;7.97;95.80;102816.75;4834406;29;20038;-86
2021/11/06 05:35:33;;;;;;;23.75;15.43;;;;;;;7.96;95.98;102814.13;4866291;29;20025;-85
2021/11/06 05:37:58;;;;;;;23.60;16.00;;;;;;;7.97;95.90;102821.13;4849671;29;20113;-85
2021/11/06 05:40:24;;;;;;;27.33;15.25;;;;;;;7.95;95.83;102822.81;4849354;29;20029;-85
2021/11/06 05:42:49;;;;;;;30.08;15.35;;;;;;;7.95;95.72;102820.22;4865213;29;20045;-86
2021/11/06 05:45:15;;;;;;;28.08;15.55;;;;;;;7.95;95.72;102817.59;4867152;29;20049;-86
2021/11/06 05:47:41;;;;;;;30.20;15.75;;;;;;;7.95;95.86;102812.38;4865905;29;20033;-85
2021/11/06 05:50:09;;;;;;;25.75;15.73;;;;;;;7.94;95.59;102816.75;4850057;29;20037;-86
2021/11/06 05:52:34;;;;;;;27.00;15.50;;;;;;;7.94;95.79;102818.50;4866751;29;20404;-86
2021/11/06 05:55:00;;;;;;;25.23;16.38;;;;;;;7.93;95.75;102811.50;4821832;29;20116;-85
2021/11/06 05:57:26;;;;;;;21.88;15.05;;;;;;;7.93;96.02;102809.81;4854030;29;20087;-86
2021/11/06 05:59:51;;;;;;;25.23;15.75;;;;;;;7.92;96.03;102808.03;4853907;29;20049;-86
2021/11/06 06:02:16;;;;;;;24.00;15.60;;;;;;;7.91;95.74;102803.69;4852889;29;20037;-86
2021/11/06 06:04:42;;;;;;;27.58;16.42;;;;;;;7.92;95.90;102808.03;4837900;29;20041;-86
2021/11/06 06:07:07;;;;;;;24.20;15.77;;;;;;;7.92;96.10;102805.44;4852976;29;20061;-86
2021/11/06 06:09:33;;;;;;;24.52;16.80;;;;;;;7.91;96.01;102808.91;4853576;29;20195;-86
2021/11/06 06:11:58;;;;;;;25.13;16.90;;;;;;;7.92;96.01;102807.19;4852996;29;20045;-86
2021/11/06 06:14:24;;;;;;;25.85;17.42;;;;;;;7.93;96.14;102801.06;4853174;29;20342;-86
2021/11/06 06:16:49;;;;;;;24.58;16.50;;;;;;;7.94;96.24;102802.84;4838037;29;20122;-86
2021/11/06 06:19:15;;;;;;;26.67;16.48;;;;;;;7.94;96.15;102795.00;4853373;29;20070;-86
2021/11/06 06:21:40;;;;;;;30.38;17.17;;;;;;;7.95;96.09;102796.72;4869938;29;20048;-86
2021/11/06 06:24:06;;;;;;;28.95;17.55;;;;;;;7.96;96.09;102795.88;4853484;29;20352;-86
2021/11/06 06:26:31;;;;;;;25.17;16.40;;;;;;;7.95;96.20;102787.19;4852959;29;20344;-86
2021/11/06 06:28:57;;;;;;;27.73;17.25;;;;;;;7.96;96.13;102790.66;4852796;29;20040;-86
2021/11/06 06:31:22;;;;;;;24.95;16.60;;;;;;;7.96;96.28;102794.13;4834121;29;20036;-85
2021/11/06 06:33:48;;;;;;;26.60;16.40;;;;;;;7.95;96.30;102797.63;4849393;29;20029;-85
2021/11/06 06:36:13;;;;;;;28.58;16.10;;;;;;;7.96;96.17;102801.09;4853262;29;20367;-86
2021/11/06 06:38:39;;;;;;;28.23;17.13;;;;;;;7.96;96.29;102801.09;4852808;29;20049;-86
2021/11/06 06:41:04;;;;;;;21.52;15.93;;;;;;;7.96;96.33;102801.94;4869653;29;20044;-86
2021/11/06 06:43:29;;;;;;;26.42;17.23;;;;;;;7.97;96.39;102808.06;4853247;29;20128;-85
2021/11/06 06:45:55;;;;;;;22.42;16.17;;;;;;;7.96;96.29;102804.56;4838076;29;20067;-86
2021/11/06 06:48:20;;;;;;;24.90;15.43;;;;;;;7.98;96.44;102796.75;4852202;29;20241;-86
2021/11/06 06:50:47;;;;;;;25.48;16.00;;;;;;;7.96;96.47;102801.09;4853367;29;20037;-86
2021/11/06 06:53:13;;;;;;;28.15;16.60;;;;;;;7.96;96.55;102801.09;4850945;29;20153;-85
2021/11/06 06:55:39;;;;;;;28.60;15.57;;;;;;;7.95;96.32;102807.16;4836540;29;20033;-86
2021/11/06 06:58:04;;;;;;;20.98;15.77;;;;;;;7.92;96.34;102795.00;4835442;29;20081;-86
2021/11/06 07:00:30;;;;;;;20.17;15.55;;;;;;;7.91;96.56;102798.47;4857852;29;20065;-86
2021/11/06 07:02:55;;;;;;;25.15;15.10;;;;;;;7.93;96.59;102798.47;4850245;29;20337;-86
2021/11/06 07:05:21;;;;;;;27.27;15.68;;;;;;;7.93;96.55;102801.97;4864945;29;20041;-85
2021/11/06 07:07:46;;;;;;;24.48;15.75;;;;;;;7.95;96.68;102804.56;4850946;29;20360;-86
2021/11/06 07:10:12;;;;;;;26.13;15.98;;;;;;;7.95;96.62;102808.06;4866462;29;20053;-85
2021/11/06 07:12:37;;;;;;;28.58;14.98;;;;;;;7.98;96.80;102812.41;4816553;29;20245;-85
2021/11/06 07:15:03;;;;;;;20.65;13.98;;;;;;;7.98;96.68;102810.66;4866925;29;20266;-86
2021/11/06 07:17:29;;;;;;;25.67;15.43;;;;;;;8.01;96.93;102815.88;4834867;29;21822;-86
2021/11/06 07:19:54;;;;;;;22.48;14.43;;;;;;;8.01;96.74;102815.03;4850241;29;20049;-86
2021/11/06 07:22:19;;;;;;;31.65;15.65;;;;;;;8.01;96.54;102807.19;4865989;29;20059;-84
2021/11/06 07:24:45;;;;;;;28.95;16.10;;;;;;;8.00;96.63;102813.25;4850382;29;20041;-87
2021/11/06 07:27:10;;;;;;;22.83;14.68;;;;;;;8.01;96.37;102810.66;4846815;29;20029;-86
2021/11/06 07:29:36;;;;;;;26.77;14.98;;;;;;;8.03;96.48;102814.13;4816509;29;20221;-86
2021/11/06 07:32:02;;;;;;;16.67;13.15;;;;;;;8.04;96.19;102815.00;4856274;29;20029;-85
2021/11/06 07:34:27;;;;;;;18.77;13.95;;;;;;;8.05;96.12;102811.53;4826029;29;20037;-86
2021/11/06 07:36:52;;;;;;;19.88;13.75;;;;;;;8.07;96.09;102810.66;4859371;29;20037;-86
2021/11/06 07:39:18;;;;;;;23.60;13.77;;;;;;;8.11;96.26;102806.31;4827516;29;20065;-86
2021/11/06 07:41:44;;;;;;;18.30;12.50;;;;;;;8.12;96.18;102808.06;4822281;29;20053;-86
2021/11/06 07:44:11;;;;;;;21.48;14.13;;;;;;;8.14;96.22;102802.84;4831283;29;20045;-85
2021/11/06 07:46:37;;;;;;;20.63;13.63;;;;;;;8.17;95.71;102815.91;4840769;29;20045;-86
2021/11/06 07:49:02;;;;;;;18.63;13.43;;;;;;;8.20;95.73;102805.47;4863920;29;20081;-85
2021/11/06 07:51:28;;;;;;;17.67;12.98;;;;;;;8.20;95.84;102811.53;4824828;29;20909;-86
2021/11/06 07:53:53;;;;;;;19.88;13.43;;;;;;;8.20;95.67;102808.06;4844848;29;20292;-85
2021/11/06 07:56:19;;;;;;;19.63;12.38;;;;;;;8.22;95.67;102811.56;4843797;29;20105;-85
2021/11/06 07:58:44;;;;;;;16.42;11.38;;;;;;;8.22;95.59;102802.00;4827598;29;20038;-86
2021/11/06 08:01:09;;;;;;;20.92;12.27;;;;;;;8.21;95.64;102802.84;4866286;29;20041;-86
2021/11/06 08:03:35;;;;;;;17.45;11.18;;;;;;;8.23;95.51;102800.25;4839656;29;20037;-85
2021/11/06 08:06:00;;;;;;;15.30;11.10;;;;;;;8.24;95.19;102796.75;4872508;29;20045;-85
2021/11/06 08:08:26;;;;;;;17.60;10.32;;;;;;;8.23;95.17;102800.25;4854232;29;20045;-85
2021/11/06 08:10:51;;;;;;;19.23;11.05;;;;;;;8.26;95.42;102802.88;4846789;29;20050;-85
2021/11/06 08:13:17;;;;;;;18.77;10.63;;;;;;;8.26;95.30;102800.25;4816626;29;20033;-85
2021/11/06 08:15:42;;;;;;;16.48;10.57;;;;;;;8.25;95.14;102807.19;4859006;29;20080;-85
2021/11/06 08:18:08;;;;;;;19.27;10.07;;;;;;;8.27;95.08;102797.63;4839691;29;20044;-86
2021/11/06 08:20:33;;;;;;;14.75;9.95;;;;;;;8.31;95.05;102803.72;4841157;29;20402;-86
2021/11/06 08:22:59;;;;;;;16.60;11.18;;;;;;;8.35;94.85;102804.59;4853570;29;20112;-86
2021/11/06 08:25:24;;;;;;;16.35;10.60;;;;;;;8.37;94.88;102795.91;4849018;29;20037;-86
2021/11/06 08:27:52;;;;;;;17.20;10.43;;;;;;;8.40;94.71;102795.91;4821705;29;20033;-86
2021/11/06 08:30:19;;;;;;;22.27;10.75;;;;;;;8.44;94.65;102791.56;4826999;29;20159;-86
2021/11/06 08:32:44;;;;;;;15.88;12.15;;;;;;;8.47;94.72;102799.41;4814610;29;20141;-87
2021/11/06 08:35:10;;;;;;;20.67;10.65;;;;;;;8.50;94.99;102786.34;4841854;29;20037;-86
2021/11/06 08:37:37;;;;;;;16.55;10.55;;;;;;;8.51;94.65;102788.06;4846656;29;20091;-86
2021/11/06 08:40:04;;;;;;;14.45;9.65;;;;;;;8.50;94.49;102796.81;4841712;29;20052;-86
2021/11/06 08:42:29;;;;;;;15.60;9.40;;;;;;;8.52;94.34;102796.81;4860104;29;20302;-86
2021/11/06 08:44:55;;;;;;;14.27;10.07;;;;;;;8.53;94.68;102799.41;4839647;29;20348;-86
2021/11/06 08:47:21;;;;;;;16.83;10.25;;;;;;;8.58;94.76;102796.78;4842921;29;20048;-86
2021/11/06 08:49:46;;;;;;;12.50;9.70;;;;;;;8.57;94.93;102790.69;4841543;29;20353;-86
2021/11/06 08:52:12;;;;;;;15.68;9.38;;;;;;;8.58;94.66;102794.19;4842362;29;20041;-86
2021/11/06 08:54:37;;;;;;;14.68;10.45;;;;;;;8.62;94.67;102788.97;4857882;29;20065;-86
2021/11/06 08:57:04;;;;;;;16.05;9.50;;;;;;;8.64;95.03;102797.66;4857156;29;20045;-86
2021/11/06 08:59:30;;;;;;;17.92;8.82;;;;;;;8.68;95.14;102789.78;4842186;29;20310;-86
2021/11/06 09:01:55;;;;;;;10.02;8.48;;;;;;;8.72;95.17;102796.78;4858603;29;20252;-86
2021/11/06 09:04:21;;;;;;;12.00;7.93;;;;;;;8.74;95.17;102793.28;4846459;29;20048;-86
2021/11/06 09:06:46;;;;;;;13.18;8.00;;;;;;;8.79;94.93;102799.38;4834863;29;20051;-86
2021/11/06 09:09:12;;;;;;;15.20;7.90;;;;;;;8.86;95.14;102783.66;4843916;29;20429;-87
2021/11/06 09:11:38;;;;;;;11.88;8.02;;;;;;;8.92;95.30;102783.69;4834776;29;20068;-87
2021/11/06 09:14:04;;;;;;;11.10;6.75;;;;;;;8.96;95.40;102781.03;4849569;29;20037;-85
2021/11/06 09:16:30;;;;;;;9.95;6.15;;;;;;;8.97;94.91;102777.56;4849381;29;20037;-86
2021/11/06 09:18:55;;;;;;;13.55;6.45;;;;;;;9.01;94.45;102779.28;4843970;29;20037;-86
2021/11/06 09:21:24;;;;;;;12.63;6.75;;;;;;;9.03;94.62;102774.91;4837092;29;20033;-86
2021/11/06 09:23:50;;;;;;;13.97;6.00;;;;;;;9.03;94.46;102763.59;4850162;29;20066;-85
2021/11/06 09:26:16;;;;;;;8.35;5.47;;;;;;;9.04;93.34;102767.97;4878909;29;20041;-87
2021/11/06 09:28:42;;;;;;;19.73;5.55;;;;;;;9.03;93.15;102772.28;4849578;29;20059;-86
2021/11/06 09:31:11;;;;;;;10.05;5.45;;;;;;;9.03;92.65;102772.28;4850226;29;20431;-86
2021/11/06 09:33:40;;;;;;;10.52;5.53;;;;;;;9.04;92.16;102770.56;4850274;29;20045;-86
2021/11/06 09:36:05;;;;;;;19.38;6.30;;;;;;;9.06;92.23;102774.06;4849407;29;20752;-86
2021/11/06 09:38:31;;;;;;;13.88;4.95;;;;;;;9.06;92.21;102776.66;4866824;29;20033;-85
2021/11/06 09:41:01;;;;;;;7.50;5.50;;;;;;;9.06;92.10;102763.59;4856364;29;20039;-86
2021/11/06 09:43:26;;;;;;;11.68;5.80;;;;;;;9.06;91.69;102774.06;4870061;29;20053;-86
2021/11/06 09:45:53;;;;;;;8.20;5.20;;;;;;;9.07;90.78;102773.16;4874119;29;20045;-85
2021/11/06 09:48:18;;;;;;;11.40;5.13;;;;;;;9.08;91.34;102768.78;4852476;29;20044;-86
2021/11/06 09:50:43;;;;;;;10.20;5.45;;;;;;;9.11;91.37;102776.63;4859991;29;20037;-86
2021/11/06 09:53:09;;;;;;;8.75;5.38;;;;;;;9.11;91.32;102764.41;4836940;29;20374;-86
2021/11/06 09:55:35;;;;;;;11.60;5.50;;;;;;;9.17;91.56;102776.63;4868005;29;20387;-86
2021/11/06 09:58:00;;;;;;;4.93;4.47;;;;;;;9.17;90.95;102772.25;4837505;29;20339;-86
2021/11/06 10:00:26;;;;;;;9.30;6.10;;;;;;;9.23;91.34;102771.38;4873450;29;20115;-85
2021/11/06 10:02:54;;;;;;;14.48;5.88;;;;;;;9.26;91.80;102776.59;4869865;29;20049;-85
2021/11/06 10:05:53;;;;;;;8.15;5.32;;;;;;;9.29;91.60;102775.69;4864840;29;20393;-86
2021/11/06 10:08:35;;;;;;;9.50;5.45;;;;;;;9.32;91.35;102762.63;4830250;29;20071;-85
2021/11/06 10:11:14;;;;;;;13.88;5.78;;;;;;;9.33;91.77;102767.84;4844750;29;20087;-86
2021/11/06 10:13:48;;;;;;;;;;;;;;;9.33;91.43;102765.22;4857199;29;20093;-86
2021/11/06 10:16:13;;;;;;;9.85;5.20;;;;;;;9.36;91.69;102769.56;4865930;29;20227;-86
2021/11/06 10:18:39;;;;;;;7.25;5.80;;;;;;;9.37;90.98;102763.47;4833412;29;20036;-85
2021/11/06 10:21:07;;;;;;;9.48;5.88;;;;;;;9.39;90.84;102762.56;4851347;29;20045;-86
2021/11/06 10:23:35;;;;;;;6.63;4.75;;;;;;;9.43;90.13;102762.56;4841476;29;20044;-86
2021/11/06 10:26:18;;;;;;;7.57;5.18;;;;;;;9.48;90.95;102751.19;4848502;29;20032;-86
2021/11/06 10:28:44;;;;;;;10.30;5.20;;;;;;;9.54;91.43;102758.13;4851106;29;20022;-87
2021/11/06 10:31:09;;;;;;;7.10;5.13;;;;;;;9.55;91.24;102760.75;4832969;29;20034;-86
2021/11/06 10:33:42;;;;;;;18.08;5.35;;;;;;;9.58;90.95;102754.63;4826312;29;20090;-86
2021/11/06 10:36:15;;;;;;;8.93;4.85;;;;;;;9.59;90.61;102757.22;4864541;29;20069;-86
2021/11/06 10:38:41;;;;;;;7.68;4.47;;;;;;;9.63;89.49;102760.69;4860477;29;20034;-84
2021/11/06 10:41:08;;;;;;;7.00;4.72;;;;;;;9.61;89.46;102752.84;4859906;29;20112;-86
2021/11/06 10:43:37;;;;;;;12.88;5.10;;;;;;;9.64;89.83;102757.22;4838824;29;20041;-86
2021/11/06 10:46:04;;;;;;;8.63;4.80;;;;;;;9.61;89.34;102757.22;4851077;29;20048;-85
2021/11/06 10:48:32;;;;;;;15.15;4.25;;;;;;;9.62;89.18;102756.34;4867638;29;20033;-85
2021/11/06 10:50:58;;;;;;;6.18;4.53;;;;;;;9.64;89.79;102754.59;4860314;29;20041;-87
2021/11/06 10:53:30;;;;;;;6.25;5.00;;;;;;;9.66;89.48;102747.59;4883937;29;20028;-86
2021/11/06 10:55:55;;;;;;;8.77;4.72;;;;;;;9.67;89.98;102748.47;4887160;29;20108;-86
2021/11/06 10:58:23;;;;;;;7.32;4.53;;;;;;;9.68;90.31;102740.63;4852340;29;20045;-87
2021/11/06 11:01:19;;;;;;;6.05;3.95;;;;;;;9.69;88.35;102742.34;4852327;29;20097;-86
2021/11/06 11:03:46;;;;;;;9.25;4.70;;;;;;;9.73;88.99;102743.19;4850439;29;20037;-86
2021/11/06 11:06:15;;;;;;;8.48;4.53;;;;;;;9.76;89.44;102741.41;4852149;29;20049;-86
2021/11/06 11:08:48;;;;;;;12.23;5.20;;;;;;;9.78;89.24;102734.41;4867867;29;20337;-86
2021/11/06 11:11:14;;;;;;;8.80;4.55;;;;;;;9.84;90.25;102732.66;4826041;29;20050;-87
2021/11/06 11:13:50;;;;;;;5.28;4.78;;;;;;;9.87;90.34;102720.41;4829257;29;20049;-86
2021/11/06 11:16:16;;;;;;;15.68;5.10;;;;;;;9.87;90.08;102714.31;4845112;29;20046;-85
2021/11/06 11:18:43;;;;;;;7.10;5.05;;;;;;;9.92;89.75;102715.16;4857458;29;20045;-85